Time;durP1;ratioP1;P1;durP2;ratioP2;P2;SDS_P1;SDS_P2;PMS_P1;PMS_P2;Temp;Humidity;BMP_temperature;BMP_pressure;BME280_temperature;BME280_humidity;BME280_pressure;Samples;Min_cycle;Max_cycle;Signal;HPM_P1;HPM_P2
2022/05/05 00:00:54;;;;;;;13.25;11.85;;;;;;;12.68;82.96;100025.63;1093112;39;20475;-79
2022/05/05 00:01:55;;;;;;;13.13;11.73;;;;;;;12.71;82.73;100035.19;1088469;47;20568;-78
2022/05/05 00:03:00;;;;;;;13.18;11.88;;;;;;;12.70;82.98;100030.81;1087994;54;20099;-78
2022/05/05 00:04:02;;;;;;;13.00;11.57;;;;;;;12.66;83.12;100030.31;1088034;54;20046;-78
2022/05/05 00:05:07;;;;;;;12.88;11.43;;;;;;;12.68;82.77;100032.81;1087909;54;20042;-78
2022/05/05 00:06:08;;;;;;;13.48;11.45;;;;;;;12.61;83.34;100029.94;1087968;54;20053;-78
2022/05/05 00:07:12;;;;;;;12.20;10.85;;;;;;;12.76;82.74;100024.81;1087986;54;20025;-78
2022/05/05 00:08:14;;;;;;;10.55;9.45;;;;;;;12.92;81.81;100019.56;1088019;54;20034;-78
2022/05/05 00:09:18;;;;;;;10.35;8.50;;;;;;;13.01;81.14;100019.59;1087885;54;20014;-79
2022/05/05 00:14:27;;;;;;;9.18;7.20;;;;;;;13.04;80.07;100024.59;1088190;54;20027;-78
2022/05/05 00:15:29;;;;;;;7.90;6.97;;;;;;;13.09;79.85;100016.94;1087335;54;20110;-79
2022/05/05 00:16:36;;;;;;;7.82;7.03;;;;;;;13.12;79.51;100011.25;1087840;39;20464;-80
2022/05/05 00:17:40;;;;;;;8.52;7.40;;;;;;;13.14;79.20;100016.44;1087653;54;20046;-80
2022/05/05 00:18:41;;;;;;;8.43;6.85;;;;;;;13.17;79.02;100014.28;1087438;54;20039;-79
2022/05/05 00:19:46;;;;;;;9.23;8.13;;;;;;;13.15;79.10;100013.59;1087664;54;20704;-80
2022/05/05 00:20:47;;;;;;;9.55;8.48;;;;;;;13.10;79.64;100007.88;1087473;54;20069;-79
2022/05/05 00:21:52;;;;;;;9.48;8.48;;;;;;;13.07;79.77;100008.19;1087485;54;20599;-79
2022/05/05 00:22:53;;;;;;;9.35;8.00;;;;;;;13.13;79.63;100012.06;1087432;54;20042;-80
2022/05/05 00:23:57;;;;;;;8.77;7.85;;;;;;;13.13;79.52;100012.06;1087454;54;20866;-79
2022/05/05 00:25:02;;;;;;;8.20;7.30;;;;;;;13.14;79.57;100008.38;1087332;54;20057;-80
2022/05/05 00:26:03;;;;;;;8.55;7.40;;;;;;;13.14;79.86;100011.91;1087832;54;20074;-80
2022/05/05 00:27:08;;;;;;;8.32;7.32;;;;;;;13.13;79.59;100017.44;1087846;54;20030;-81
2022/05/05 00:28:10;;;;;;;8.70;7.80;;;;;;;13.10;79.90;100008.69;1087891;54;20039;-79
2022/05/05 00:29:15;;;;;;;8.27;7.25;;;;;;;13.07;79.91;100018.94;1087813;54;20038;-80
2022/05/05 00:30:17;;;;;;;8.75;7.80;;;;;;;13.13;79.98;100018.25;1087771;54;20034;-80
2022/05/05 00:31:21;;;;;;;8.05;7.22;;;;;;;13.17;80.02;100014.28;1087502;54;20034;-78
2022/05/05 00:32:25;;;;;;;6.85;6.13;;;;;;;13.22;79.66;100014.63;1087707;46;20027;-78
2022/05/05 00:33:30;;;;;;;7.95;6.47;;;;;;;13.28;79.31;100015.81;1087883;46;20049;-79
2022/05/05 00:34:32;;;;;;;7.55;6.57;;;;;;;13.29;79.33;100012.13;1087616;54;20619;-78
2022/05/05 00:35:36;;;;;;;6.93;5.80;;;;;;;13.33;79.15;100012.63;1087513;54;20607;-78
2022/05/05 00:36:38;;;;;;;6.90;5.97;;;;;;;13.37;79.02;100004.09;1087845;54;20038;-78
2022/05/05 00:37:42;;;;;;;8.25;7.32;;;;;;;13.26;79.45;100005.25;1088240;54;20123;-79
2022/05/05 00:38:43;;;;;;;8.30;7.38;;;;;;;13.21;79.51;100007.59;1088194;54;20034;-80
2022/05/05 00:39:47;;;;;;;12.93;8.30;;;;;;;13.22;79.80;100016.47;1089066;46;20019;-81
2022/05/05 00:40:49;;;;;;;9.68;7.88;;;;;;;13.17;79.72;100019.63;1088254;54;20023;-78
2022/05/05 00:41:54;;;;;;;8.88;7.70;;;;;;;13.22;79.79;100011.09;1088145;54;20042;-79
2022/05/05 00:42:57;;;;;;;8.02;6.95;;;;;;;13.25;79.75;100010.78;1087727;47;20034;-79
2022/05/05 00:44:02;;;;;;;8.45;7.28;;;;;;;13.28;79.62;100010.44;1088241;54;20041;-79
2022/05/05 00:45:04;;;;;;;7.82;6.85;;;;;;;13.31;79.53;100009.28;1088058;54;20030;-78
2022/05/05 00:46:09;;;;;;;8.57;7.30;;;;;;;13.30;79.55;100011.13;1088315;54;20082;-81
2022/05/05 00:47:15;;;;;;;11.05;8.57;;;;;;;13.29;79.67;100006.75;1088197;54;20033;-80
2022/05/05 00:48:27;;;;;;;8.88;7.50;;;;;;;13.30;79.15;100002.25;1087921;47;20650;-79
2022/05/05 00:49:29;;;;;;;8.43;6.88;;;;;;;13.31;79.16;100001.25;1087816;54;20042;-80
2022/05/05 00:50:35;;;;;;;9.75;8.32;;;;;;;13.12;79.84;100005.88;1088111;54;20034;-80
2022/05/05 00:51:36;;;;;;;11.95;9.63;;;;;;;12.91;80.65;100004.44;1088096;54;20046;-79
2022/05/05 00:52:41;;;;;;;10.02;9.00;;;;;;;12.89;81.18;100001.09;1088032;54;20042;-79
2022/05/05 00:53:42;;;;;;;10.48;9.38;;;;;;;12.95;81.02;100004.97;1088071;54;20042;-79
2022/05/05 00:54:46;;;;;;;10.95;9.35;;;;;;;13.00;80.88;100002.63;1087807;54;20018;-80
2022/05/05 00:55:50;;;;;;;9.77;8.77;;;;;;;13.06;80.50;100001.13;1087686;54;20049;-79
2022/05/05 00:56:55;;;;;;;10.60;8.68;;;;;;;13.05;80.42;99999.47;1087429;54;20109;-79
2022/05/05 00:57:56;;;;;;;11.77;8.80;;;;;;;13.08;80.36;100004.50;1087379;54;20643;-79
2022/05/05 00:59:01;;;;;;;9.07;8.00;;;;;;;13.14;80.26;100001.16;1087212;54;20062;-79
2022/05/05 01:00:03;;;;;;;8.98;8.07;;;;;;;13.18;80.13;100007.91;1087524;54;20833;-78
2022/05/05 01:01:08;;;;;;;8.50;7.47;;;;;;;13.22;79.70;99995.84;1087839;54;20098;-79
2022/05/05 01:02:11;;;;;;;8.65;7.40;;;;;;;13.24;79.75;100004.56;1090039;39;20512;-79
2022/05/05 01:03:21;;;;;;;9.70;8.20;;;;;;;13.22;79.89;100000.38;1087905;54;20045;-79
2022/05/05 01:04:25;;;;;;;10.18;8.73;;;;;;;12.97;80.27;100002.97;1087852;54;20031;-79
2022/05/05 01:05:28;;;;;;;11.98;10.73;;;;;;;12.74;81.59;100000.00;1087169;54;20927;-78
2022/05/05 01:06:33;;;;;;;11.73;10.52;;;;;;;12.60;82.45;99996.91;1087264;54;20035;-78
2022/05/05 01:07:35;;;;;;;13.73;11.45;;;;;;;12.53;82.78;99998.56;1087597;54;20050;-79
2022/05/05 01:08:39;;;;;;;11.93;10.60;;;;;;;12.57;82.27;100002.59;1087751;54;20552;-80
2022/05/05 01:09:41;;;;;;;12.93;10.82;;;;;;;12.59;82.30;100000.59;1087887;54;20034;-79
2022/05/05 01:10:45;;;;;;;11.68;10.45;;;;;;;12.62;82.18;100000.28;1088001;54;20040;-78
2022/05/05 01:11:47;;;;;;;11.30;9.88;;;;;;;12.61;82.20;100003.13;1087955;54;20042;-79
2022/05/05 01:12:51;;;;;;;12.93;11.10;;;;;;;12.47;82.43;100007.22;1087977;54;20596;-79
2022/05/05 01:13:52;;;;;;;13.65;12.25;;;;;;;12.37;82.78;100011.88;1087822;54;20046;-80
2022/05/05 01:14:57;;;;;;;12.77;11.48;;;;;;;12.41;82.83;100015.91;1087953;54;20034;-80
2022/05/05 01:15:59;;;;;;;14.30;11.73;;;;;;;12.38;82.98;100008.16;1087742;54;20034;-79
2022/05/05 01:17:04;;;;;;;12.50;11.20;;;;;;;12.33;82.84;100011.31;1087868;54;20035;-79
2022/05/05 01:18:06;;;;;;;13.45;11.68;;;;;;;12.32;82.64;100010.50;1087783;54;20043;-80
2022/05/05 01:19:12;;;;;;;13.57;12.18;;;;;;;12.29;82.80;100007.28;1087761;54;20035;-79
2022/05/05 01:20:16;;;;;;;14.18;12.68;;;;;;;12.20;83.40;100013.59;1087761;54;20801;-78
2022/05/05 01:21:24;;;;;;;14.80;13.30;;;;;;;12.10;84.22;100019.03;1087830;54;20066;-80
2022/05/05 01:22:26;;;;;;;15.60;13.95;;;;;;;12.01;84.21;100023.50;1087764;54;20046;-80
2022/05/05 01:23:30;;;;;;;15.52;13.90;;;;;;;12.00;84.42;100028.00;1087389;54;20030;-78
2022/05/05 01:28:22;;;;;;;12.65;11.38;;;;;;;12.31;83.09;100016.84;1088013;54;20030;-79
2022/05/05 01:29:27;;;;;;;13.32;11.68;;;;;;;12.35;82.71;100025.41;1087923;54;20090;-79
2022/05/05 01:30:28;;;;;;;11.10;9.82;;;;;;;12.44;82.54;100032.50;1087936;54;20043;-80
2022/05/05 01:31:33;;;;;;;12.88;11.30;;;;;;;12.41;82.16;100026.63;1087922;54;20026;-79
2022/05/05 01:32:35;;;;;;;14.10;12.68;;;;;;;12.30;82.54;100027.72;1087701;54;20042;-79
2022/05/05 01:33:39;;;;;;;16.02;12.43;;;;;;;12.26;83.21;100026.34;1087641;54;20042;-79
2022/05/05 01:34:41;;;;;;;13.95;12.55;;;;;;;12.26;83.16;100027.22;1087696;54;20042;-79
2022/05/05 01:35:46;;;;;;;13.57;12.18;;;;;;;12.21;83.12;100031.34;1087782;54;20042;-80
2022/05/05 01:36:50;;;;;;;13.93;12.48;;;;;;;12.17;83.47;100028.16;1090369;39;20444;-79
2022/05/05 01:37:54;;;;;;;13.55;12.15;;;;;;;12.28;83.00;100025.19;1087961;54;20026;-79
2022/05/05 01:38:56;;;;;;;13.70;12.23;;;;;;;12.44;82.51;100023.63;1087775;54;20606;-78
2022/05/05 01:40:00;;;;;;;11.68;9.95;;;;;;;12.52;81.91;100029.06;1087624;54;20045;-78
2022/05/05 01:41:01;;;;;;;10.93;9.73;;;;;;;12.58;81.44;100031.09;1087503;54;20050;-80
2022/05/05 01:42:07;;;;;;;11.63;10.43;;;;;;;12.58;81.53;100024.91;1088042;54;20026;-80
2022/05/05 01:43:09;;;;;;;11.55;10.35;;;;;;;12.56;81.45;100033.09;1087711;54;20037;-79
2022/05/05 01:44:13;;;;;;;12.38;10.57;;;;;;;12.53;81.78;100033.41;1087994;54;20039;-79
2022/05/05 01:45:15;;;;;;;13.07;11.70;;;;;;;12.50;81.69;100033.72;1087897;54;20034;-79
2022/05/05 01:46:20;;;;;;;12.77;11.35;;;;;;;12.45;81.93;100025.31;1087988;54;20144;-79
2022/05/05 01:47:21;;;;;;;13.13;11.73;;;;;;;12.40;82.03;100027.63;1087865;54;20046;-79
2022/05/05 01:48:26;;;;;;;13.65;12.25;;;;;;;12.41;82.24;100029.31;1087980;54;20069;-80
2022/05/05 01:49:27;;;;;;;13.93;12.43;;;;;;;12.41;82.15;100029.31;1087586;54;20646;-80
2022/05/05 01:55:54;;;;;;;16.02;14.15;;;;;;;12.20;82.37;100024.31;1088176;54;20070;-85
2022/05/05 01:57:59;;;;;;;14.88;13.30;;;;;;;12.21;82.43;100029.50;1088322;54;20231;-84
2022/05/05 01:59:01;;;;;;;13.05;11.75;;;;;;;12.39;81.71;100023.25;1088379;54;20030;-85
2022/05/05 02:00:06;;;;;;;13.50;11.95;;;;;;;12.42;81.54;100014.91;1088391;54;20030;-84
2022/05/05 02:02:13;;;;;;;15.25;13.65;;;;;;;12.21;82.19;100029.50;1088441;54;20262;-85
2022/05/05 02:03:14;;;;;;;15.95;13.48;;;;;;;12.09;83.00;100030.75;1088489;54;20038;-84
2022/05/05 02:04:19;;;;;;;16.33;14.27;;;;;;;12.05;82.85;100029.38;1088222;54;20030;-83
2022/05/05 02:05:20;;;;;;;16.30;14.65;;;;;;;12.02;82.94;100023.31;1091129;39;20724;-85
2022/05/05 02:06:24;;;;;;;16.05;14.40;;;;;;;12.00;82.99;100027.16;1088091;54;20035;-85
2022/05/05 02:07:26;;;;;;;16.98;14.73;;;;;;;12.00;83.03;100029.84;1088064;54;20034;-86
2022/05/05 02:08:31;;;;;;;15.63;14.02;;;;;;;12.01;83.29;100023.50;1088119;54;20037;-86
2022/05/05 02:09:32;;;;;;;16.58;14.82;;;;;;;12.02;83.19;100026.00;1088167;54;20030;-85
2022/05/05 02:10:36;;;;;;;15.80;14.20;;;;;;;11.98;83.14;100024.66;1088363;54;20855;-85
2022/05/05 02:11:41;;;;;;;16.33;14.73;;;;;;;12.00;83.43;100030.66;1088491;54;20101;-85
2022/05/05 02:14:51;;;;;;;15.82;14.23;;;;;;;11.98;83.32;100032.69;1088356;54;20049;-86
2022/05/05 02:15:52;;;;;;;21.50;14.18;;;;;;;11.90;83.53;100031.72;1088233;54;20165;-86
2022/05/05 02:16:57;;;;;;;17.80;15.35;;;;;;;11.84;84.19;100033.19;1088316;54;20014;-84
2022/05/05 02:18:06;;;;;;;16.92;14.98;;;;;;;11.78;84.81;100049.88;1088470;54;20027;-84
2022/05/05 02:19:10;;;;;;;18.37;15.90;;;;;;;11.73;84.80;100036.94;1088515;54;20014;-85
2022/05/05 02:20:12;;;;;;;16.77;15.05;;;;;;;11.75;85.05;100042.13;1088912;46;20270;-85
2022/05/05 02:21:16;;;;;;;16.52;14.73;;;;;;;11.71;85.07;100053.13;1090359;39;20640;-85
2022/05/05 02:22:18;;;;;;;17.23;14.88;;;;;;;11.71;85.36;100050.47;1088432;54;20026;-87
2022/05/05 02:23:22;;;;;;;17.42;15.02;;;;;;;11.64;85.70;100048.56;1088449;54;20015;-87
2022/05/05 02:26:33;;;;;;;17.50;15.70;;;;;;;11.54;86.29;100051.28;1088310;54;20777;-85
2022/05/05 02:27:50;;;;;;;17.15;15.35;;;;;;;11.59;86.33;100046.34;1088508;54;20034;-84
2022/05/05 02:28:54;;;;;;;16.55;14.85;;;;;;;11.64;85.74;100054.75;1089950;46;20015;-86
2022/05/05 02:29:56;;;;;;;17.98;15.50;;;;;;;11.66;85.66;100046.59;1088422;54;20030;-86
2022/05/05 02:31:00;;;;;;;17.27;14.95;;;;;;;11.73;85.39;100041.44;1088384;54;20017;-85
2022/05/05 02:32:02;;;;;;;15.98;13.93;;;;;;;11.74;85.34;100049.34;1088000;54;20030;-85
2022/05/05 02:35:12;;;;;;;17.70;14.50;;;;;;;11.67;85.61;100046.41;1088316;54;20011;-85
2022/05/05 02:43:47;;;;;;;15.53;13.93;;;;;;;11.65;85.89;100044.91;1069999;54;20068;31
2022/05/05 02:44:53;;;;;;;16.45;14.32;;;;;;;11.63;86.04;100045.03;1070160;54;20251;31
2022/05/05 02:58:27;;;;;;;18.98;17.08;;;;;;;11.70;85.65;100046.13;1069991;54;20178;31
2022/05/05 02:59:30;;;;;;;19.08;16.38;;;;;;;11.69;86.03;100035.53;1070160;54;20041;31
2022/05/05 11:33:57;;;;;;;35.03;28.75;;;;;;;16.01;66.70;100261.41;1087145;47;20065;-77
2022/05/05 11:35:00;;;;;;;30.02;26.80;;;;;;;16.11;66.84;100260.34;1086947;54;20035;-80
2022/05/05 11:36:16;;;;;;;30.95;27.60;;;;;;;16.13;66.33;100263.72;1086914;54;20050;-79
2022/05/05 11:37:21;;;;;;;30.00;26.73;;;;;;;16.26;66.36;100258.56;1087584;47;20054;-79
2022/05/05 11:38:34;;;;;;;33.53;28.33;;;;;;;16.20;65.86;100259.28;1086657;54;20026;-77
2022/05/05 11:39:38;;;;;;;31.67;28.40;;;;;;;16.31;65.94;100249.94;1086377;54;20049;-78
2022/05/05 11:41:05;;;;;;;30.60;27.33;;;;;;;16.41;65.20;100247.03;1085612;54;20054;-80
2022/05/05 11:42:11;;;;;;;28.67;25.77;;;;;;;16.59;64.73;100244.91;1084954;54;20064;-77
2022/05/05 11:44:30;;;;;;;30.77;27.58;;;;;;;16.64;63.77;100253.28;1085090;54;20106;-78
2022/05/05 11:45:38;;;;;;;31.85;27.42;;;;;;;16.62;63.09;100246.38;1085075;54;20041;-78
2022/05/05 11:46:44;;;;;;;31.73;27.42;;;;;;;16.51;63.81;100248.47;1084839;54;20057;-77
2022/05/05 11:47:46;;;;;;;26.05;23.40;;;;;;;17.00;62.82;100239.19;1084806;54;20035;-77
2022/05/05 11:49:00;;;;;;;24.55;22.05;;;;;;;17.27;62.13;100234.22;1085426;54;20069;-77
2022/05/05 11:50:06;;;;;;;24.20;21.70;;;;;;;17.35;62.42;100233.28;1085282;54;20087;-76
2022/05/05 11:51:08;;;;;;;26.27;23.58;;;;;;;17.30;61.76;100239.25;1084837;47;20061;-77
2022/05/05 11:52:14;;;;;;;28.75;25.55;;;;;;;17.25;61.92;100241.69;1084864;54;20061;-77
2022/05/05 11:53:17;;;;;;;28.85;25.15;;;;;;;17.11;61.72;100235.22;1085229;54;20037;-80
2022/05/05 11:54:38;;;;;;;26.17;23.48;;;;;;;17.47;60.94;100239.09;1084901;54;20057;-79
2022/05/05 11:55:40;;;;;;;23.38;21.13;;;;;;;17.76;60.55;100232.84;1085340;54;20030;-78
2022/05/05 11:56:49;;;;;;;26.25;23.52;;;;;;;17.43;59.81;100235.06;1085604;47;20037;-76
2022/05/05 11:57:51;;;;;;;26.88;24.13;;;;;;;17.46;59.85;100237.41;1084888;54;20129;-77
2022/05/05 12:20:33;;;;;;;25.80;23.05;;;;;;;17.44;59.72;100231.34;1083917;54;20038;-77
2022/05/05 12:21:36;;;;;;;23.80;21.38;;;;;;;17.64;59.32;100223.50;1084665;54;20037;-77
2022/05/05 12:22:55;;;;;;;24.95;21.40;;;;;;;17.75;58.79;100228.47;1084602;54;20034;-78
2022/05/05 12:24:02;;;;;;;22.13;19.85;;;;;;;17.75;58.35;100223.06;1084702;54;20054;-76
2022/05/05 12:25:13;;;;;;;21.45;19.10;;;;;;;17.98;58.51;100222.13;1084717;54;20564;-77
2022/05/05 12:26:17;;;;;;;;;;;;;;;17.86;57.83;100227.13;1085033;54;20038;-78
2022/05/05 12:27:26;;;;;;;20.45;18.25;;;;;;;18.07;58.34;100218.28;1085166;54;19953;-78
2022/05/05 12:28:29;;;;;;;22.27;19.98;;;;;;;17.85;58.39;100217.38;1084662;54;20039;-77
2022/05/05 12:29:45;;;;;;;22.92;20.42;;;;;;;17.96;58.13;100215.19;1085174;54;20034;-79
2022/05/05 12:30:53;;;;;;;23.27;20.88;;;;;;;18.03;58.27;100216.16;1084521;54;20069;-77
2022/05/05 12:31:55;;;;;;;22.17;18.35;;;;;;;18.21;58.03;100213.03;1084459;54;20034;-78
2022/05/05 12:32:59;;;;;;;21.38;19.13;;;;;;;18.29;57.40;100212.06;1084887;39;20430;-78
2022/05/05 12:34:01;;;;;;;22.17;18.38;;;;;;;18.33;57.62;100216.06;1086580;39;20432;-79
2022/05/05 12:35:17;;;;;;;24.98;22.33;;;;;;;18.00;57.86;100222.75;1086036;54;20098;-77
2022/05/05 12:36:29;;;;;;;27.33;22.85;;;;;;;17.95;58.09;100217.06;1085916;54;20042;-78
2022/05/05 12:37:31;;;;;;;28.10;21.83;;;;;;;17.91;58.62;100211.19;1086132;54;20046;-79
2022/05/05 12:38:42;;;;;;;22.08;19.83;;;;;;;17.93;58.04;100216.41;1086795;54;20026;-79
2022/05/05 12:40:01;;;;;;;22.05;19.73;;;;;;;18.14;57.63;100207.53;1086415;54;20026;-78
2022/05/05 12:41:09;;;;;;;24.55;21.88;;;;;;;18.05;57.94;100214.94;1086363;54;20544;-80
2022/05/05 12:42:11;;;;;;;23.52;20.98;;;;;;;18.08;58.26;100214.56;1085811;54;20091;-80
2022/05/05 12:43:19;;;;;;;24.10;20.60;;;;;;;18.15;58.42;100211.91;1085435;54;20034;-78
2022/05/05 12:44:22;;;;;;;21.67;19.25;;;;;;;18.28;58.09;100213.91;1085678;54;20046;-78
2022/05/05 12:45:34;;;;;;;21.55;19.10;;;;;;;18.16;58.47;100210.06;1085359;54;20052;-77
2022/05/05 12:46:49;;;;;;;24.77;22.27;;;;;;;18.26;58.16;100212.44;1085852;54;20034;-78
2022/05/05 12:48:02;;;;;;;26.35;22.48;;;;;;;18.10;58.63;100211.66;1085816;54;20042;-78
2022/05/05 12:49:05;;;;;;;26.20;23.30;;;;;;;17.93;59.54;100214.56;1086210;54;20591;-78
2022/05/05 12:50:29;;;;;;;24.90;22.38;;;;;;;17.88;59.57;100216.16;1086521;54;20022;-78
2022/05/05 12:51:39;;;;;;;26.40;23.60;;;;;;;17.84;59.87;100209.44;1085851;54;20054;-79
2022/05/05 13:22:45;;;;;;;25.42;22.70;;;;;;;18.42;60.20;100193.25;1085626;54;20061;-77
2022/05/05 13:23:51;;;;;;;27.77;24.17;;;;;;;18.12;60.46;100198.78;1085737;54;20042;-78
2022/05/05 13:24:53;;;;;;;31.33;27.02;;;;;;;17.89;61.28;100207.84;1085306;54;20030;-76
2022/05/05 13:26:17;;;;;;;28.88;24.85;;;;;;;17.96;61.21;100202.53;1086590;54;20077;-78
2022/05/05 13:27:21;;;;;;;29.77;24.70;;;;;;;17.81;61.62;100201.69;1085715;54;20038;-78
2022/05/05 13:28:26;;;;;;;28.67;25.40;;;;;;;17.77;62.04;100202.09;1085823;54;20042;-77
2022/05/05 13:29:49;;;;;;;27.95;24.27;;;;;;;17.90;61.65;100203.28;1087114;46;20053;-77
2022/05/05 13:30:51;;;;;;;30.80;26.45;;;;;;;17.63;62.39;100200.22;1086265;54;20118;-77
2022/05/05 13:31:56;;;;;;;29.90;26.08;;;;;;;17.71;62.49;100202.00;1086297;46;20042;-76
2022/05/05 13:32:58;;;;;;;27.90;22.85;;;;;;;17.93;62.18;100198.34;1085261;39;20464;-77
2022/05/05 13:34:05;;;;;;;24.23;21.63;;;;;;;18.07;61.66;100193.09;1085570;39;20424;-77
2022/05/05 13:35:13;;;;;;;22.45;20.02;;;;;;;18.23;61.16;100187.44;1085082;54;20102;-77
2022/05/05 13:36:15;;;;;;;22.48;20.10;;;;;;;18.37;61.14;100193.00;1085209;54;20045;-77
2022/05/05 13:37:20;;;;;;;22.02;19.73;;;;;;;18.38;60.97;100191.97;1085031;54;20045;-78
2022/05/05 13:38:26;;;;;;;21.85;19.55;;;;;;;18.45;60.54;100192.88;1084908;54;20034;-78
2022/05/05 13:39:30;;;;;;;21.67;19.40;;;;;;;18.60;60.26;100190.09;1084952;54;20026;-77
2022/05/05 13:40:37;;;;;;;22.92;19.50;;;;;;;18.54;59.55;100196.31;1085734;54;20035;-77
2022/05/05 13:41:44;;;;;;;21.90;19.65;;;;;;;18.50;59.96;100187.75;1085873;54;20039;-79
2022/05/05 13:42:48;;;;;;;26.65;23.90;;;;;;;18.20;61.12;100187.84;1086269;54;20529;-79
2022/05/05 13:44:03;;;;;;;26.90;23.60;;;;;;;18.20;61.14;100190.56;1085441;46;20054;-79
2022/05/05 13:45:09;;;;;;;25.30;22.60;;;;;;;18.12;61.39;100198.78;1085444;46;20015;-77
2022/05/05 13:46:14;;;;;;;29.25;26.15;;;;;;;17.72;62.09;100204.50;1086155;54;20038;-78
2022/05/05 13:47:45;;;;;;;28.58;25.55;;;;;;;17.50;62.91;100200.88;1087015;54;20031;-78
2022/05/05 13:48:50;;;;;;;27.63;24.63;;;;;;;17.44;63.37;100202.47;1087499;54;20050;-80
2022/05/05 13:49:55;;;;;;;25.10;22.40;;;;;;;17.74;62.42;100201.63;1085594;54;20038;-77
2022/05/05 13:50:59;;;;;;;25.70;22.23;;;;;;;17.60;63.17;100206.00;1086258;39;20490;-78
2022/05/05 13:52:13;;;;;;;26.40;23.10;;;;;;;17.43;63.69;100195.38;1084844;54;20090;-77
2022/05/05 13:53:18;;;;;;;27.02;22.55;;;;;;;17.44;63.70;100196.22;1084877;54;20145;-77
2022/05/05 13:54:22;;;;;;;26.00;21.55;;;;;;;17.30;64.68;100206.00;1084402;54;20552;-78
2022/05/05 13:55:29;;;;;;;26.25;22.05;;;;;;;17.48;64.15;100208.31;1085072;54;20023;-77
2022/05/05 13:56:31;;;;;;;24.00;20.90;;;;;;;17.55;63.63;100209.28;1085581;54;20034;-77
2022/05/05 13:57:36;;;;;;;25.73;22.55;;;;;;;17.39;64.16;100202.19;1086449;54;20089;-79
2022/05/05 13:58:38;;;;;;;31.40;23.40;;;;;;;17.21;65.13;100209.81;1085245;54;20050;-78
2022/05/05 13:59:53;;;;;;;25.73;22.75;;;;;;;17.35;64.72;100202.75;1085819;54;20026;-79
2022/05/05 14:00:57;;;;;;;22.35;20.13;;;;;;;17.60;63.85;100204.13;1088301;31;20521;-79
2022/05/05 14:02:02;;;;;;;22.00;18.73;;;;;;;17.68;63.53;100203.22;1086319;54;20038;-78
2022/05/05 14:03:07;;;;;;;29.10;21.10;;;;;;;17.56;64.28;100204.69;1086650;54;20042;-79
2022/05/05 14:04:15;;;;;;;27.42;23.20;;;;;;;17.25;65.52;100198.44;1086753;54;20131;-80
2022/05/05 14:05:24;;;;;;;30.27;24.80;;;;;;;17.08;65.88;100205.03;1087509;54;20031;-80
2022/05/05 14:06:29;;;;;;;27.70;24.65;;;;;;;16.95;66.60;100202.97;1086485;54;20055;-78
2022/05/05 14:12:56;;;;;;;25.02;21.70;;;;;;;17.09;66.52;100187.81;1086016;54;20026;-78
2022/05/05 14:14:05;;;;;;;29.10;24.27;;;;;;;17.03;66.91;100188.53;1088793;39;20453;-77
2022/05/05 14:15:14;;;;;;;25.77;22.90;;;;;;;16.99;66.84;100190.78;1086435;39;20536;-79
2022/05/05 14:16:20;;;;;;;26.23;21.95;;;;;;;17.26;66.12;100189.31;1085137;54;20062;-77
2022/05/05 14:17:35;;;;;;;20.02;17.92;;;;;;;17.55;65.31;100192.22;1087123;54;20026;-78
2022/05/05 14:18:37;;;;;;;20.50;17.55;;;;;;;17.76;64.45;100186.03;1086854;54;20041;-79
2022/05/05 14:19:46;;;;;;;18.98;17.08;;;;;;;17.90;63.99;100187.06;1086801;54;20035;-79
2022/05/05 14:20:48;;;;;;;21.08;18.23;;;;;;;17.96;63.70;100188.13;1086662;54;20057;-78
2022/05/05 14:21:54;;;;;;;19.85;17.85;;;;;;;17.94;62.87;100188.34;1086577;54;20030;-78
2022/05/05 14:22:59;;;;;;;23.60;20.17;;;;;;;17.97;63.22;100189.84;1086514;54;20098;-78
2022/05/05 14:24:08;;;;;;;20.52;16.33;;;;;;;18.07;62.92;100184.97;1085478;54;20046;-79
2022/05/05 14:25:13;;;;;;;22.27;19.75;;;;;;;18.04;62.94;100186.19;1086443;54;20026;-78
2022/05/05 14:26:23;;;;;;;19.05;17.05;;;;;;;18.03;63.17;100186.41;1085697;54;20041;-78
2022/05/05 14:27:25;;;;;;;20.30;17.05;;;;;;;18.02;63.13;100182.84;1086226;54;20031;-78
2022/05/05 14:37:49;;;;;;;12.52;11.20;;;;;;;18.09;60.97;100188.34;1083715;54;20031;-76
2022/05/05 14:38:50;;;;;;;10.60;8.93;;;;;;;18.03;59.71;100181.00;1084999;54;20034;-77
2022/05/05 14:39:57;;;;;;;8.25;7.00;;;;;;;17.93;58.82;100183.97;1085755;54;20114;-77
2022/05/05 14:41:01;;;;;;;8.90;6.63;;;;;;;17.91;58.89;100191.41;1085498;54;20038;-76
2022/05/05 14:42:10;;;;;;;8.50;5.95;;;;;;;17.80;58.80;100189.22;1085898;54;20030;-76
2022/05/05 16:53:33;;;;;;;10.95;8.05;;;;;;;16.99;62.04;100233.97;1088191;54;20041;-83
2022/05/05 16:54:34;;;;;;;9.88;6.75;;;;;;;17.06;62.16;100234.09;1088542;54;20026;-84
2022/05/05 16:55:39;;;;;;;8.65;6.50;;;;;;;17.10;61.95;100227.28;1088423;54;20038;-83
2022/05/05 16:56:41;;;;;;;9.10;7.05;;;;;;;17.11;61.94;100231.66;1088582;54;20035;-83
2022/05/05 16:57:47;;;;;;;8.10;6.72;;;;;;;17.11;61.57;100237.06;1088639;54;20065;-83
2022/05/05 16:58:52;;;;;;;9.25;6.43;;;;;;;17.10;61.85;100228.13;1093214;39;20624;-83
2022/05/05 16:59:53;;;;;;;7.28;6.07;;;;;;;17.14;61.97;100231.31;1094153;39;20597;-84
2022/05/05 17:00:57;;;;;;;8.45;6.60;;;;;;;17.18;61.70;100231.78;1088398;54;20114;-81
2022/05/05 17:01:59;;;;;;;8.32;6.53;;;;;;;17.14;61.66;100232.13;1088614;54;20078;-84
2022/05/05 17:03:03;;;;;;;8.63;6.30;;;;;;;17.13;62.03;100233.19;1088672;54;20029;-83
2022/05/05 17:04:05;;;;;;;8.45;6.68;;;;;;;17.12;61.83;100230.66;1088608;54;20019;-84
2022/05/05 17:05:09;;;;;;;8.07;6.45;;;;;;;17.12;61.93;100225.25;1088571;54;20034;-82
2022/05/05 17:06:13;;;;;;;8.35;6.20;;;;;;;17.04;62.07;100236.13;1088578;54;20038;-83
2022/05/05 17:07:15;;;;;;;9.60;6.88;;;;;;;17.04;61.86;100230.72;1088584;54;20049;-83
2022/05/05 17:08:20;;;;;;;9.00;7.55;;;;;;;17.05;62.03;100230.53;1088620;54;20030;-83
2022/05/05 17:09:24;;;;;;;8.95;7.18;;;;;;;17.03;61.75;100237.16;1095618;46;20029;-84
2022/05/05 17:10:28;;;;;;;8.75;7.30;;;;;;;16.96;62.02;100242.44;1088619;54;20041;-83
2022/05/05 17:11:30;;;;;;;7.72;6.80;;;;;;;16.92;62.08;100235.69;1088506;54;20022;-82
2022/05/05 17:12:34;;;;;;;10.32;7.47;;;;;;;16.94;62.28;100239.94;1088534;54;20035;-83
2022/05/05 17:13:35;;;;;;;9.07;7.43;;;;;;;16.90;62.03;100235.91;1088628;54;20023;-83
2022/05/05 17:14:39;;;;;;;11.00;7.93;;;;;;;16.83;62.38;100235.78;1088621;54;20078;-84
2022/05/05 17:15:44;;;;;;;8.18;7.30;;;;;;;16.91;62.30;100237.53;1094334;39;20584;-84
2022/05/05 17:16:45;;;;;;;9.18;7.43;;;;;;;16.95;62.04;100236.19;1088441;54;20973;-81
2022/05/05 17:17:49;;;;;;;8.05;7.10;;;;;;;16.94;62.22;100237.22;1088426;54;20037;-84
2022/05/05 17:18:51;;;;;;;9.02;7.18;;;;;;;16.97;62.16;100244.97;1088608;54;20038;-85
2022/05/05 17:19:55;;;;;;;9.35;7.10;;;;;;;16.93;62.07;100243.63;1088646;54;20018;-84
2022/05/05 17:20:56;;;;;;;9.82;7.03;;;;;;;16.87;62.19;100244.34;1088533;54;20026;-83
2022/05/05 17:22:01;;;;;;;8.50;7.05;;;;;;;16.88;62.27;100246.03;1088548;54;20030;-84
2022/05/05 17:23:05;;;;;;;7.75;6.55;;;;;;;16.89;62.36;100247.72;1088530;54;20023;-84
2022/05/05 17:24:07;;;;;;;8.80;6.03;;;;;;;16.98;62.08;100246.66;1089442;39;20672;-83
2022/05/05 17:25:14;;;;;;;9.05;6.53;;;;;;;16.95;62.22;100249.72;1088619;54;20022;-82
2022/05/05 17:26:15;;;;;;;9.38;7.43;;;;;;;16.89;62.39;100241.44;1088634;54;20030;-82
2022/05/05 17:27:19;;;;;;;8.55;6.28;;;;;;;16.96;62.32;100243.28;1088541;54;20018;-85
2022/05/05 17:28:24;;;;;;;7.38;6.38;;;;;;;16.96;62.38;100247.84;1088547;54;20034;-81
2022/05/05 17:29:25;;;;;;;6.78;6.03;;;;;;;17.04;62.21;100249.63;1088608;54;20026;-82
2022/05/05 17:30:30;;;;;;;8.68;6.53;;;;;;;17.06;61.81;100242.19;1088596;54;20022;-83
2022/05/05 17:31:32;;;;;;;7.53;6.20;;;;;;;17.11;61.80;100247.88;1088486;54;20034;-83